createdAt,value
2019-03-15T00:00:44.441Z,2.78
2019-03-15T00:03:15.772Z,2.79
2019-03-15T00:05:46.006Z,2.77
2019-03-15T00:08:16.947Z,2.77
2019-03-15T00:10:47.985Z,2.69
2019-03-15T00:13:19.436Z,2.68
2019-03-15T00:15:49.554Z,2.73
2019-03-15T00:18:20.528Z,2.72
2019-03-15T00:20:51.122Z,2.72
2019-03-15T00:23:21.854Z,2.80
2019-03-15T00:25:55.349Z,2.70
2019-03-15T00:28:25.157Z,2.75
2019-03-15T00:30:55.751Z,2.72
2019-03-15T00:33:26.216Z,2.73
2019-03-15T00:35:57.457Z,2.65
2019-03-15T00:38:29.112Z,2.69
2019-03-15T00:40:59.639Z,2.68
2019-03-15T00:43:30.065Z,2.68
2019-03-15T00:46:00.300Z,2.69
2019-03-15T00:48:32.864Z,2.70
2019-03-15T00:51:04.417Z,2.60
2019-03-15T00:53:34.941Z,2.53
2019-03-15T00:56:05.382Z,2.53
2019-03-15T00:58:35.893Z,2.47
2019-03-15T01:01:07.795Z,2.52
2019-03-15T01:03:40.841Z,2.51
2019-03-15T01:06:12.433Z,2.43
2019-03-15T01:08:43.439Z,2.36
2019-03-15T01:11:13.655Z,2.36
2019-03-15T01:13:45.891Z,2.32
2019-03-15T01:16:17.063Z,2.34
2019-03-15T01:18:47.694Z,2.31
2019-03-15T01:21:20.955Z,2.28
2019-03-15T01:23:51.410Z,2.30
2019-03-15T01:26:21.834Z,2.26
2019-03-15T01:28:52.366Z,2.19
2019-03-15T01:31:22.420Z,2.11
2019-03-15T01:33:53.285Z,2.00
2019-03-15T01:36:23.843Z,1.94
2019-03-15T01:38:54.473Z,1.85
2019-03-15T01:41:25.034Z,1.75
2019-03-15T01:43:55.736Z,1.71
2019-03-15T01:46:26.057Z,1.73
2019-03-15T01:48:56.687Z,1.92
2019-03-15T01:51:26.900Z,1.88
2019-03-15T01:53:57.538Z,1.95
2019-03-15T01:56:27.967Z,2.04
2019-03-15T01:58:58.598Z,2.11
2019-03-15T02:01:32.281Z,2.16
2019-03-15T02:04:02.822Z,2.06
2019-03-15T02:06:33.974Z,2.19
2019-03-15T02:09:08.945Z,2.29
2019-03-15T02:11:38.490Z,2.24
2019-03-15T02:14:08.498Z,2.13
2019-03-15T02:16:40.710Z,2.07
2019-03-15T02:19:11.089Z,2.01
2019-03-15T02:21:41.657Z,1.95
2019-03-15T02:24:11.699Z,1.95
2019-03-15T02:26:42.170Z,1.95
2019-03-15T02:29:13.524Z,1.83
2019-03-15T02:31:45.450Z,1.80
2019-03-15T02:34:16.134Z,1.81
2019-03-15T02:36:46.747Z,1.85
2019-03-15T02:39:17.387Z,1.70
2019-03-15T02:41:47.641Z,1.62
2019-03-15T02:44:19.971Z,1.64
2019-03-15T02:46:51.633Z,1.62
2019-03-15T02:49:23.068Z,1.57
2019-03-15T02:51:54.115Z,1.56
2019-03-15T02:54:27.361Z,1.57
2019-03-15T02:56:59.571Z,1.69
2019-03-15T02:59:30.833Z,1.77
2019-03-15T03:02:03.188Z,1.72
2019-03-15T03:04:38.734Z,1.72
2019-03-15T03:07:09.366Z,1.65
2019-03-15T03:09:41.735Z,1.70
2019-03-15T03:12:11.949Z,1.70
2019-03-15T03:14:42.999Z,1.65
2019-03-15T03:17:13.555Z,1.62
2019-03-15T03:19:45.051Z,1.73
2019-03-15T03:22:15.542Z,1.75
2019-03-15T03:24:48.691Z,1.72
2019-03-15T03:27:19.317Z,1.65
2019-03-15T03:29:50.907Z,1.65
2019-03-15T03:32:21.730Z,1.69
2019-03-15T03:34:52.230Z,1.73
2019-03-15T03:37:22.960Z,1.66
2019-03-15T03:39:53.450Z,1.59
2019-03-15T03:42:25.696Z,1.62
2019-03-15T03:44:57.308Z,1.60
2019-03-15T03:47:27.632Z,1.70
2019-03-15T03:49:58.773Z,1.73
2019-03-15T03:52:30.529Z,1.82
2019-03-15T03:55:01.057Z,1.77
2019-03-15T03:57:31.688Z,1.73
2019-03-15T04:00:03.063Z,1.81
2019-03-15T04:02:34.047Z,1.67
2019-03-15T04:05:06.039Z,1.60
2019-03-15T04:07:36.456Z,1.58
2019-03-15T04:10:09.457Z,1.47
2019-03-15T04:12:39.775Z,1.41
2019-03-15T04:15:11.515Z,1.46
2019-03-15T04:17:42.255Z,1.46
2019-03-15T04:20:13.194Z,1.51
2019-03-15T04:22:43.758Z,1.51
2019-03-15T04:25:14.555Z,1.40
2019-03-15T04:27:45.289Z,1.34
2019-03-15T04:30:15.921Z,1.41
2019-03-15T04:32:46.651Z,1.45
2019-03-15T04:35:17.385Z,1.40
2019-03-15T04:37:48.022Z,1.48
2019-03-15T04:40:20.793Z,1.49
2019-03-15T04:42:54.086Z,1.59
2019-03-15T04:45:25.535Z,1.79
2019-03-15T04:47:56.367Z,1.72
2019-03-15T04:50:26.999Z,1.71
2019-03-15T04:52:57.735Z,1.80
2019-03-15T04:55:28.875Z,1.93
2019-03-15T04:58:00.020Z,1.95
2019-03-15T05:00:30.487Z,2.06
2019-03-15T05:03:01.790Z,2.26
2019-03-15T05:05:32.075Z,2.41
2019-03-15T05:08:03.252Z,2.54
2019-03-15T05:10:34.294Z,2.59
2019-03-15T05:13:05.853Z,2.71
2019-03-15T05:15:37.403Z,2.76
2019-03-15T05:18:10.822Z,2.89
2019-03-15T05:20:42.161Z,3.00
2019-03-15T05:23:13.385Z,3.15
2019-03-15T05:25:45.856Z,3.15
2019-03-15T05:28:16.695Z,3.10
2019-03-15T05:30:47.180Z,3.18
2019-03-15T05:33:19.501Z,3.20
2019-03-15T05:35:49.940Z,3.20
2019-03-15T05:38:24.535Z,3.32
2019-03-15T05:40:55.104Z,3.36
2019-03-15T05:43:26.735Z,3.52
2019-03-15T05:45:57.870Z,3.58
2019-03-15T05:48:28.160Z,3.82
2019-03-15T05:50:59.841Z,4.01
2019-03-15T05:53:31.285Z,4.18
2019-03-15T05:56:02.019Z,4.32
2019-03-15T05:58:32.754Z,4.41
2019-03-15T06:01:03.380Z,4.54
2019-03-15T06:03:48.027Z,4.82
2019-03-15T06:06:09.590Z,4.83
2019-03-15T06:08:40.939Z,4.53
2019-03-15T06:11:12.864Z,5.10
2019-03-15T06:13:43.517Z,5.12
2019-03-15T06:16:14.334Z,5.23
2019-03-15T06:18:48.349Z,5.68
2019-03-15T06:21:21.324Z,5.97
2019-03-15T06:23:51.956Z,6.04
2019-03-15T06:26:23.195Z,5.90
2019-03-15T06:28:54.250Z,6.06
2019-03-15T06:31:24.560Z,6.17
2019-03-15T06:33:56.726Z,5.97
2019-03-15T06:36:27.275Z,5.88
2019-03-15T06:38:57.984Z,5.89
2019-03-15T06:41:28.614Z,6.01
2019-03-15T06:43:59.382Z,5.87
2019-03-15T06:46:31.860Z,6.05
2019-03-15T06:49:03.166Z,5.96
2019-03-15T06:51:34.257Z,5.58
2019-03-15T06:54:11.368Z,5.74
2019-03-15T06:56:38.442Z,6.09
2019-03-15T06:59:09.268Z,6.07
2019-03-15T07:01:39.900Z,6.47
2019-03-15T07:04:10.636Z,6.60
2019-03-15T07:06:42.481Z,6.90
2019-03-15T07:09:15.274Z,6.55
2019-03-15T07:11:45.911Z,6.44
2019-03-15T07:14:17.950Z,6.70
2019-03-15T07:16:48.559Z,6.69
2019-03-15T07:19:27.354Z,6.94
2019-03-15T07:22:03.137Z,7.12
2019-03-15T07:24:35.339Z,7.57
2019-03-15T07:27:12.984Z,7.45
2019-03-15T07:29:39.662Z,7.04
2019-03-15T07:32:10.770Z,7.17
2019-03-15T07:34:45.124Z,7.20
2019-03-15T07:37:17.293Z,7.44
2019-03-15T07:39:47.967Z,7.55
2019-03-15T07:42:21.598Z,7.61
2019-03-15T07:44:51.848Z,7.59
2019-03-15T07:47:23.494Z,7.66
2019-03-15T07:49:54.547Z,7.91
2019-03-15T07:52:27.527Z,7.69
2019-03-15T07:54:59.791Z,7.81
2019-03-15T07:57:32.060Z,7.98
2019-03-15T08:00:02.655Z,8.33
2019-03-15T08:02:35.293Z,8.69
2019-03-15T08:05:06.553Z,8.65
2019-03-15T08:07:44.351Z,8.74
2019-03-15T08:10:11.139Z,8.80
2019-03-15T08:12:42.869Z,8.77
2019-03-15T08:15:15.791Z,9.04
2019-03-15T08:17:46.213Z,9.24
2019-03-15T08:20:19.337Z,9.43
2019-03-15T08:22:50.032Z,9.53
2019-03-15T08:25:21.489Z,9.64
2019-03-15T08:27:51.998Z,10.19
2019-03-15T08:30:25.101Z,9.89
2019-03-15T08:33:09.191Z,9.39
2019-03-15T08:35:30.965Z,9.24
2019-03-15T08:38:05.295Z,9.37
2019-03-15T08:40:35.200Z,9.55
2019-03-15T08:43:06.028Z,9.50
2019-03-15T08:45:38.603Z,9.56
2019-03-15T08:48:09.029Z,8.95
2019-03-15T08:50:39.760Z,8.63
2019-03-15T08:53:10.504Z,8.73
2019-03-15T08:55:41.924Z,8.88
2019-03-15T08:58:20.293Z,8.66
2019-03-15T09:00:46.586Z,8.94
2019-03-15T09:03:27.971Z,8.88
2019-03-15T09:05:49.904Z,8.83
2019-03-15T09:08:20.624Z,8.80
2019-03-15T09:10:52.176Z,8.80
2019-03-15T09:13:22.624Z,8.64
2019-03-15T09:15:54.571Z,8.63
2019-03-15T09:18:25.298Z,9.01
2019-03-15T09:20:56.053Z,8.84
2019-03-15T09:23:26.867Z,8.67
2019-03-15T09:25:57.492Z,8.76
2019-03-15T09:28:28.738Z,8.80
2019-03-15T09:31:01.200Z,8.94
2019-03-15T09:33:31.637Z,8.89
2019-03-15T09:36:02.673Z,9.03
2019-03-15T09:38:33.398Z,8.78
2019-03-15T09:41:04.242Z,8.74
2019-03-15T09:43:35.572Z,8.86
2019-03-15T09:46:06.426Z,8.99
2019-03-15T09:48:37.154Z,9.22
2019-03-15T09:51:07.786Z,9.57
2019-03-15T09:53:41.185Z,9.61
2019-03-15T09:56:12.016Z,9.25
2019-03-15T09:58:42.653Z,9.35
2019-03-15T10:01:13.854Z,9.48
2019-03-15T10:03:44.623Z,9.03
2019-03-15T10:06:19.405Z,8.55
2019-03-15T10:08:48.152Z,8.65
2019-03-15T10:11:19.910Z,8.78
2019-03-15T10:13:52.857Z,8.78
2019-03-15T10:16:25.083Z,8.66
2019-03-15T10:18:58.387Z,8.48
2019-03-15T10:21:29.153Z,8.64
2019-03-15T10:23:59.937Z,8.71
2019-03-15T10:26:32.679Z,9.10
2019-03-15T10:29:14.500Z,9.18
2019-03-15T10:31:35.979Z,9.34
2019-03-15T10:34:08.017Z,9.09
2019-03-15T10:36:38.571Z,8.90
2019-03-15T10:39:11.568Z,8.87
2019-03-15T10:41:47.010Z,8.64
2019-03-15T10:44:19.074Z,8.43
2019-03-15T10:46:49.725Z,8.28
2019-03-15T10:49:20.514Z,8.24
2019-03-15T10:51:52.602Z,8.06
2019-03-15T10:54:23.743Z,8.03
2019-03-15T10:56:57.857Z,8.14
2019-03-15T10:59:29.174Z,7.83
2019-03-15T11:02:00.455Z,7.96
2019-03-15T11:04:30.997Z,8.34
2019-03-15T11:07:03.549Z,8.62
2019-03-15T11:09:34.283Z,8.78
2019-03-15T11:12:04.914Z,9.08
2019-03-15T11:14:37.526Z,9.23
2019-03-15T11:17:08.317Z,10.00
2019-03-15T11:19:39.043Z,10.20
2019-03-15T11:22:10.099Z,10.41
2019-03-15T11:24:43.652Z,10.23
2019-03-15T11:27:13.265Z,9.75
2019-03-15T11:29:44.992Z,8.98
2019-03-15T11:32:15.990Z,8.88
2019-03-15T11:34:48.119Z,8.66
2019-03-15T11:37:18.795Z,8.71
2019-03-15T11:39:49.629Z,8.50
2019-03-15T11:42:22.880Z,8.40
2019-03-15T11:44:53.554Z,8.39
2019-03-15T11:47:24.201Z,8.16
2019-03-15T11:49:55.014Z,8.18
2019-03-15T11:52:25.756Z,8.34
2019-03-15T11:54:56.500Z,8.40
2019-03-15T11:57:27.315Z,8.34
2019-03-15T11:59:58.617Z,8.47
2019-03-15T12:02:29.422Z,8.75
2019-03-15T12:05:00.438Z,9.13
2019-03-15T12:07:32.539Z,9.45
2019-03-15T12:10:06.307Z,9.43
2019-03-15T12:12:36.590Z,9.97
2019-03-15T12:15:14.590Z,11.25
2019-03-15T12:17:45.641Z,11.25
2019-03-15T12:20:17.513Z,10.56
2019-03-15T12:22:48.467Z,9.99
2019-03-15T12:25:18.807Z,9.86
2019-03-15T12:27:50.050Z,9.99
2019-03-15T12:30:20.660Z,10.05
2019-03-15T12:32:53.394Z,10.49
2019-03-15T12:35:25.627Z,11.10
2019-03-15T12:37:58.944Z,11.73
2019-03-15T12:40:29.696Z,13.26
2019-03-15T12:43:01.181Z,13.51
2019-03-15T12:45:31.609Z,13.06
2019-03-15T12:48:02.248Z,13.10
2019-03-15T12:50:33.505Z,12.74
2019-03-15T12:53:05.774Z,11.92
2019-03-15T12:55:38.461Z,10.93
2019-03-15T12:58:09.270Z,10.12
2019-03-15T13:00:41.227Z,9.92
2019-03-15T13:03:13.597Z,9.74
2019-03-15T13:05:44.225Z,9.86
2019-03-15T13:08:15.215Z,9.34
2019-03-15T13:10:46.104Z,9.49
2019-03-15T13:13:17.710Z,9.37
2019-03-15T13:15:49.518Z,9.33
2019-03-15T13:18:20.963Z,9.11
2019-03-15T13:20:51.686Z,8.99
2019-03-15T13:23:22.536Z,8.96
2019-03-15T13:25:54.664Z,9.31
2019-03-15T13:28:28.504Z,9.27
2019-03-15T13:30:58.568Z,8.93
2019-03-15T13:33:28.876Z,9.04
2019-03-15T13:35:59.571Z,9.29
2019-03-15T13:38:30.097Z,9.33
2019-03-15T13:41:00.840Z,9.08
2019-03-15T13:43:32.486Z,8.66
2019-03-15T13:46:04.386Z,8.24
2019-03-15T13:48:36.080Z,8.16
2019-03-15T13:51:06.920Z,8.16
2019-03-15T13:53:37.872Z,8.13
2019-03-15T13:56:08.413Z,7.98
2019-03-15T13:58:40.506Z,7.90
2019-03-15T14:01:11.183Z,7.79
2019-03-15T14:03:43.875Z,7.56
2019-03-15T14:06:14.613Z,7.45
2019-03-15T14:08:46.060Z,7.28
2019-03-15T14:11:16.486Z,7.28
2019-03-15T14:13:49.059Z,7.13
2019-03-15T14:16:22.662Z,7.06
2019-03-15T14:18:52.880Z,7.20
2019-03-15T14:21:24.331Z,7.22
2019-03-15T14:23:56.821Z,7.14
2019-03-15T14:26:27.434Z,6.99
2019-03-15T14:28:58.257Z,6.96
2019-03-15T14:31:29.000Z,6.88
2019-03-15T14:34:00.425Z,6.84
2019-03-15T14:36:30.775Z,6.88
2019-03-15T14:39:02.971Z,6.82
2019-03-15T14:41:34.117Z,6.77
2019-03-15T14:44:04.827Z,6.70
2019-03-15T14:46:36.476Z,6.70
2019-03-15T14:49:06.794Z,6.66
2019-03-15T14:51:39.882Z,6.65
2019-03-15T14:54:11.930Z,6.66
2019-03-15T14:56:42.576Z,6.53
2019-03-15T14:59:14.740Z,6.41
2019-03-15T15:01:45.176Z,6.39
2019-03-15T15:04:16.697Z,6.50
2019-03-15T15:06:47.976Z,6.36
2019-03-15T15:09:19.319Z,6.25
2019-03-15T15:11:49.942Z,6.13
2019-03-15T15:14:22.832Z,6.10
2019-03-15T15:16:53.659Z,5.98
2019-03-15T15:19:25.922Z,5.92
2019-03-15T15:22:01.186Z,5.81
2019-03-15T15:24:34.010Z,5.86
2019-03-15T15:27:08.138Z,5.79
2019-03-15T15:29:41.285Z,5.74
2019-03-15T15:32:16.765Z,5.65
2019-03-15T15:34:50.422Z,5.46
2019-03-15T15:37:24.596Z,5.47
2019-03-15T15:40:00.069Z,5.35
2019-03-15T15:42:33.110Z,5.21
2019-03-15T15:45:06.721Z,5.17
2019-03-15T15:47:43.681Z,5.23
2019-03-15T15:50:17.888Z,5.17
2019-03-15T15:52:49.773Z,5.21
2019-03-15T15:55:21.548Z,5.19
2019-03-15T15:57:52.380Z,5.18
2019-03-15T16:00:23.031Z,5.30
2019-03-15T16:02:54.574Z,5.29
2019-03-15T16:05:25.409Z,5.14
2019-03-15T16:07:58.792Z,5.14
2019-03-15T16:10:29.974Z,5.13
2019-03-15T16:13:02.748Z,5.15
2019-03-15T16:15:33.765Z,5.12
2019-03-15T16:18:04.597Z,4.98
2019-03-15T16:20:35.324Z,4.98
2019-03-15T16:23:06.153Z,5.01
2019-03-15T16:25:36.992Z,5.03
2019-03-15T16:28:07.924Z,4.99
2019-03-15T16:30:39.770Z,4.95
2019-03-15T16:33:14.251Z,4.79
2019-03-15T16:35:45.760Z,4.74
2019-03-15T16:38:17.720Z,4.89
2019-03-15T16:40:49.748Z,4.77
2019-03-15T16:43:21.231Z,4.67
2019-03-15T16:45:54.757Z,4.80
2019-03-15T16:48:25.666Z,4.80
2019-03-15T16:50:56.184Z,4.82
2019-03-15T16:53:26.519Z,4.81
2019-03-15T16:55:56.940Z,4.80
2019-03-15T16:58:27.978Z,4.77
2019-03-15T17:00:58.450Z,4.79
2019-03-15T17:03:30.009Z,4.73
2019-03-15T17:06:02.433Z,4.66
2019-03-15T17:08:33.902Z,4.65
2019-03-15T17:11:05.989Z,4.73
2019-03-15T17:13:37.042Z,4.79
2019-03-15T17:16:07.966Z,4.79
2019-03-15T17:18:38.874Z,4.69
2019-03-15T17:21:09.594Z,4.61
2019-03-15T17:23:40.427Z,4.53
2019-03-15T17:26:11.058Z,4.53
2019-03-15T17:28:41.484Z,4.54
2019-03-15T17:31:12.114Z,4.47
2019-03-15T17:33:45.859Z,4.47
2019-03-15T17:36:16.489Z,4.38
2019-03-15T17:38:47.073Z,4.44
2019-03-15T17:41:18.729Z,4.50
2019-03-15T17:43:49.461Z,4.15
2019-03-15T17:46:20.153Z,4.36
2019-03-15T17:48:51.436Z,4.39
2019-03-15T17:51:22.170Z,4.42
2019-03-15T17:53:52.799Z,4.38
2019-03-15T17:56:23.736Z,4.40
2019-03-15T17:58:55.272Z,4.31
2019-03-15T18:01:26.840Z,4.25
2019-03-15T18:03:58.732Z,4.29
2019-03-15T18:06:31.073Z,4.27
2019-03-15T18:09:01.915Z,4.19
2019-03-15T18:11:32.536Z,3.95
2019-03-15T18:14:03.676Z,4.13
2019-03-15T18:16:34.306Z,4.15
2019-03-15T18:19:07.325Z,4.14
2019-03-15T18:21:38.602Z,4.17
2019-03-15T18:24:10.700Z,4.11
2019-03-15T18:26:41.431Z,4.09
2019-03-15T18:29:25.446Z,4.15
2019-03-15T18:31:45.749Z,4.20
2019-03-15T18:34:16.499Z,4.16
2019-03-15T18:36:47.207Z,4.12
2019-03-15T18:39:18.066Z,4.05
2019-03-15T18:41:50.619Z,4.00
2019-03-15T18:44:22.404Z,4.03
2019-03-15T18:46:53.231Z,4.03
2019-03-15T18:49:24.798Z,4.02
2019-03-15T18:51:55.245Z,3.96
2019-03-15T18:54:26.655Z,3.99
2019-03-15T18:56:57.191Z,3.95
2019-03-15T18:59:39.273Z,3.96
2019-03-15T19:02:00.034Z,3.96
2019-03-15T19:04:30.716Z,4.03
2019-03-15T19:07:01.143Z,4.00
2019-03-15T19:09:33.188Z,3.94
2019-03-15T19:12:03.713Z,3.95
2019-03-15T19:14:34.371Z,3.95
2019-03-15T19:17:06.772Z,3.98
2019-03-15T19:19:37.360Z,4.00
2019-03-15T19:22:07.996Z,3.97
2019-03-15T19:24:38.941Z,4.00
2019-03-15T19:27:09.764Z,3.95
2019-03-15T19:29:53.197Z,3.82
2019-03-15T19:32:13.276Z,3.86
2019-03-15T19:34:44.723Z,3.89
2019-03-15T19:37:17.199Z,3.76
2019-03-15T19:39:47.931Z,3.79
2019-03-15T19:42:18.869Z,3.79
2019-03-15T19:44:49.857Z,3.88
2019-03-15T19:47:20.646Z,3.78
2019-03-15T19:49:51.476Z,3.76
2019-03-15T19:52:22.156Z,3.76
2019-03-15T19:55:00.272Z,3.70
2019-03-15T19:57:26.085Z,3.70
2019-03-15T20:00:07.023Z,3.67
2019-03-15T20:02:30.285Z,3.65
2019-03-15T20:05:01.922Z,3.61
2019-03-15T20:07:32.490Z,3.60
2019-03-15T20:10:07.519Z,3.54
2019-03-15T20:12:39.532Z,3.59
2019-03-15T20:15:11.812Z,3.59
2019-03-15T20:17:42.230Z,3.59
2019-03-15T20:20:18.459Z,3.55
2019-03-15T20:22:49.947Z,3.50
2019-03-15T20:25:21.288Z,3.47
2019-03-15T20:27:51.714Z,3.47
2019-03-15T20:30:26.711Z,3.52
2019-03-15T20:32:56.356Z,3.47
2019-03-15T20:35:27.022Z,3.44
2019-03-15T20:37:57.418Z,3.36
2019-03-15T20:40:28.578Z,3.40
2019-03-15T20:42:59.384Z,3.41
2019-03-15T20:45:32.068Z,3.39
2019-03-15T20:48:03.073Z,3.38
2019-03-15T20:50:46.093Z,3.43
2019-03-15T20:53:09.792Z,3.44
2019-03-15T20:55:39.851Z,3.37
2019-03-15T20:58:10.750Z,3.40
2019-03-15T21:00:41.680Z,3.39
2019-03-15T21:03:12.411Z,3.35
2019-03-15T21:05:43.452Z,3.36
2019-03-15T21:08:15.820Z,3.37
2019-03-15T21:10:46.409Z,3.37
2019-03-15T21:13:17.201Z,3.43
2019-03-15T21:15:48.375Z,3.41
2019-03-15T21:18:19.068Z,3.44
2019-03-15T21:20:50.200Z,3.43
2019-03-15T21:23:21.348Z,3.43
2019-03-15T21:25:52.075Z,3.40
2019-03-15T21:28:23.525Z,3.40
2019-03-15T21:30:53.951Z,3.41
2019-03-15T21:33:24.684Z,3.33
2019-03-15T21:35:55.007Z,3.35
2019-03-15T21:38:26.153Z,3.34
2019-03-15T21:40:56.881Z,3.44
2019-03-15T21:43:29.061Z,3.59
2019-03-15T21:45:59.777Z,3.51
2019-03-15T21:48:32.469Z,3.45
2019-03-15T21:51:03.184Z,3.49
2019-03-15T21:53:34.130Z,3.42
2019-03-15T21:56:05.271Z,3.41
2019-03-15T21:58:36.307Z,3.34
2019-03-15T22:01:06.630Z,3.37
2019-03-15T22:03:37.465Z,3.35
2019-03-15T22:06:09.632Z,3.37
2019-03-15T22:08:40.873Z,3.39
2019-03-15T22:11:21.017Z,3.51
2019-03-15T22:13:44.827Z,3.46
2019-03-15T22:16:16.346Z,3.51
2019-03-15T22:18:48.209Z,3.48
2019-03-15T22:21:18.940Z,3.48
2019-03-15T22:23:52.850Z,3.39
2019-03-15T22:26:23.173Z,3.29
2019-03-15T22:28:53.907Z,3.29
2019-03-15T22:31:25.147Z,3.25
2019-03-15T22:33:55.350Z,3.30
2019-03-15T22:36:26.714Z,3.29
2019-03-15T22:38:57.445Z,3.33
2019-03-15T22:41:28.708Z,3.24
2019-03-15T22:43:59.832Z,3.22
2019-03-15T22:46:30.568Z,3.20
2019-03-15T22:49:01.912Z,3.15
2019-03-15T22:51:33.982Z,3.14
2019-03-15T22:54:04.500Z,3.17
2019-03-15T22:56:35.747Z,3.06
2019-03-15T22:59:07.013Z,2.99
2019-03-15T23:01:39.154Z,2.92
2019-03-15T23:04:13.475Z,2.70
2019-03-15T23:06:45.025Z,2.98
2019-03-15T23:09:16.514Z,2.95
2019-03-15T23:11:47.206Z,2.87
2019-03-15T23:14:21.937Z,2.80
2019-03-15T23:16:54.512Z,2.79
2019-03-15T23:19:25.141Z,2.72
2019-03-15T23:21:57.552Z,2.79
2019-03-15T23:24:28.551Z,2.67
2019-03-15T23:27:00.614Z,2.64
2019-03-15T23:29:31.348Z,2.53
2019-03-15T23:32:02.503Z,2.61
2019-03-15T23:34:34.655Z,2.55
2019-03-15T23:37:04.981Z,2.54
2019-03-15T23:39:36.323Z,2.68
2019-03-15T23:42:07.978Z,2.71
2019-03-15T23:44:39.329Z,2.83
2019-03-15T23:47:11.530Z,2.87
2019-03-15T23:49:42.683Z,2.94
2019-03-15T23:52:13.260Z,3.02
2019-03-15T23:54:44.408Z,3.02
2019-03-15T23:57:15.043Z,3.10
2019-03-15T23:59:46.291Z,3.06
